sensor_id;sensor_type;location;lat;lon;timestamp;pressure;altitude;pressure_sealevel;temperature;humidity
40574;BME280;26283;49.020;8.644;2023-02-14T00:02:11;101140.31;;;9.80;55.80
40574;BME280;26283;49.020;8.644;2023-02-14T00:04:36;101142.34;;;9.78;55.76
40574;BME280;26283;49.020;8.644;2023-02-14T00:07:06;101145.03;;;9.78;55.74
40574;BME280;26283;49.020;8.644;2023-02-14T00:09:31;101140.66;;;9.77;55.79
40574;BME280;26283;49.020;8.644;2023-02-14T00:11:57;101139.81;;;9.76;55.79
40574;BME280;26283;49.020;8.644;2023-02-14T00:14:25;101139.97;;;9.75;55.74
40574;BME280;26283;49.020;8.644;2023-02-14T00:17:09;101139.97;;;9.75;55.71
40574;BME280;26283;49.020;8.644;2023-02-14T00:19:34;101138.31;;;9.74;55.64
40574;BME280;26283;49.020;8.644;2023-02-14T00:22:01;101134.94;;;9.72;55.66
40574;BME280;26283;49.020;8.644;2023-02-14T00:24:26;101134.09;;;9.71;55.62
40574;BME280;26283;49.020;8.644;2023-02-14T00:26:52;101138.66;;;9.71;55.64
40574;BME280;26283;49.020;8.644;2023-02-14T00:29:23;101132.41;;;9.70;55.68
40574;BME280;26283;49.020;8.644;2023-02-14T00:31:49;101132.59;;;9.69;55.71
40574;BME280;26283;49.020;8.644;2023-02-14T00:34:16;101137.97;;;9.69;55.72
40574;BME280;26283;49.020;8.644;2023-02-14T00:36:42;101128.22;;;9.68;55.77
40574;BME280;26283;49.020;8.644;2023-02-14T00:39:09;101132.91;;;9.66;55.81
40574;BME280;26283;49.020;8.644;2023-02-14T00:41:35;101131.22;;;9.65;55.78
40574;BME280;26283;49.020;8.644;2023-02-14T00:44:01;101133.91;;;9.65;55.77
40574;BME280;26283;49.020;8.644;2023-02-14T00:46:27;101134.09;;;9.63;55.73
40574;BME280;26283;49.020;8.644;2023-02-14T00:48:52;101136.78;;;9.63;55.72
40574;BME280;26283;49.020;8.644;2023-02-14T00:51:18;101132.41;;;9.62;55.73
40574;BME280;26283;49.020;8.644;2023-02-14T00:53:45;101131.56;;;9.61;55.69
40574;BME280;26283;49.020;8.644;2023-02-14T00:56:12;101130.72;;;9.61;55.73
40574;BME280;26283;49.020;8.644;2023-02-14T00:58:37;101137.94;;;9.60;55.73
40574;BME280;26283;49.020;8.644;2023-02-14T01:01:03;101133.56;;;9.59;55.75
40574;BME280;26283;49.020;8.644;2023-02-14T01:03:29;101130.03;;;9.59;55.70
40574;BME280;26283;49.020;8.644;2023-02-14T01:05:54;101132.72;;;9.59;55.70
40574;BME280;26283;49.020;8.644;2023-02-14T01:08:21;101132.06;;;9.57;55.68
40574;BME280;26283;49.020;8.644;2023-02-14T01:10:47;101135.59;;;9.57;55.66
40574;BME280;26283;49.020;8.644;2023-02-14T01:13:13;101135.91;;;9.54;55.60
40574;BME280;26283;49.020;8.644;2023-02-14T01:15:45;101140.28;;;9.55;55.64
40574;BME280;26283;49.020;8.644;2023-02-14T01:18:10;101137.75;;;9.54;55.70
40574;BME280;26283;49.020;8.644;2023-02-14T01:20:37;101139.63;;;9.53;55.57
40574;BME280;26283;49.020;8.644;2023-02-14T01:23:02;101133.59;;;9.51;55.66
40574;BME280;26283;49.020;8.644;2023-02-14T01:25:28;101134.59;;;9.50;55.65
40574;BME280;26283;49.020;8.644;2023-02-14T01:27:56;101131.91;;;9.50;55.62
40574;BME280;26283;49.020;8.644;2023-02-14T01:30:22;101137.28;;;9.50;55.57
40574;BME280;26283;49.020;8.644;2023-02-14T01:32:47;101140.97;;;9.49;55.54
40574;BME280;26283;49.020;8.644;2023-02-14T01:35:13;101138.44;;;9.48;55.54
40574;BME280;26283;49.020;8.644;2023-02-14T01:37:38;101141.16;;;9.48;55.53
40574;BME280;26283;49.020;8.644;2023-02-14T01:40:06;101153.75;;;9.47;55.47
40574;BME280;26283;49.020;8.644;2023-02-14T01:42:33;101145.84;;;9.46;55.52
40574;BME280;26283;49.020;8.644;2023-02-14T01:47:37;101146.00;;;9.44;55.56
40574;BME280;26283;49.020;8.644;2023-02-14T01:50:11;101143.47;;;9.43;55.66
40574;BME280;26283;49.020;8.644;2023-02-14T01:52:48;101141.63;;;9.43;55.64
40574;BME280;26283;49.020;8.644;2023-02-14T01:55:19;101138.25;;;9.41;55.61
40574;BME280;26283;49.020;8.644;2023-02-14T01:57:49;101139.28;;;9.40;55.55
40574;BME280;26283;49.020;8.644;2023-02-14T02:00:17;101146.50;;;9.40;55.55
40574;BME280;26283;49.020;8.644;2023-02-14T02:03:03;101150.19;;;9.39;55.54
40574;BME280;26283;49.020;8.644;2023-02-14T02:05:29;101150.34;;;9.37;55.47
40574;BME280;26283;49.020;8.644;2023-02-14T02:07:58;101150.34;;;9.37;55.47
40574;BME280;26283;49.020;8.644;2023-02-14T02:10:24;101142.44;;;9.36;55.47
40574;BME280;26283;49.020;8.644;2023-02-14T02:12:51;101148.00;;;9.34;55.44
40574;BME280;26283;49.020;8.644;2023-02-14T02:15:18;101153.38;;;9.34;55.53
40574;BME280;26283;49.020;8.644;2023-02-14T02:18:06;101155.37;;;9.32;55.53
40574;BME280;26283;49.020;8.644;2023-02-14T02:23:42;101142.13;;;9.31;55.65
40574;BME280;26283;49.020;8.644;2023-02-14T02:31:36;101136.22;;;9.27;55.41
40574;BME280;26283;49.020;8.644;2023-02-14T02:39:48;101131.16;;;9.24;55.60
40574;BME280;26283;49.020;8.644;2023-02-14T02:48:17;101136.03;;;9.20;55.42
40574;BME280;26283;49.020;8.644;2023-02-14T02:50:49;101133.50;;;9.19;55.58
40574;BME280;26283;49.020;8.644;2023-02-14T02:56:24;101135.50;;;9.17;55.61
40574;BME280;26283;49.020;8.644;2023-02-14T02:59:26;101145.44;;;9.16;55.56
40574;BME280;26283;49.020;8.644;2023-02-14T03:02:04;101137.53;;;9.15;55.61
40574;BME280;26283;49.020;8.644;2023-02-14T03:04:32;101136.69;;;9.14;55.52
40574;BME280;26283;49.020;8.644;2023-02-14T03:07:16;101131.47;;;9.13;55.40
40574;BME280;26283;49.020;8.644;2023-02-14T03:10:11;101130.62;;;9.12;55.30
40574;BME280;26283;49.020;8.644;2023-02-14T03:20:59;101128.28;;;9.09;55.42
40574;BME280;26283;49.020;8.644;2023-02-14T03:23:31;101130.12;;;9.09;55.53
40574;BME280;26283;49.020;8.644;2023-02-14T03:26:12;101119.53;;;9.07;55.51
40574;BME280;26283;49.020;8.644;2023-02-14T03:34:10;101120.69;;;9.05;55.65
40574;BME280;26283;49.020;8.644;2023-02-14T03:39:29;101128.94;;;9.03;55.63
40574;BME280;26283;49.020;8.644;2023-02-14T03:42:05;101131.78;;;9.02;55.59
40574;BME280;26283;49.020;8.644;2023-02-14T03:44:33;101128.41;;;9.00;55.74
40574;BME280;26283;49.020;8.644;2023-02-14T03:47:04;101131.09;;;9.00;55.62
40574;BME280;26283;49.020;8.644;2023-02-14T03:49:35;101128.41;;;9.00;55.72
40574;BME280;26283;49.020;8.644;2023-02-14T03:52:03;101132.09;;;8.99;55.71
40574;BME280;26283;49.020;8.644;2023-02-14T03:54:31;101137.47;;;8.99;55.57
40574;BME280;26283;49.020;8.644;2023-02-14T03:57:06;101130.41;;;8.98;55.59
40574;BME280;26283;49.020;8.644;2023-02-14T03:59:35;101129.56;;;8.97;55.67
40574;BME280;26283;49.020;8.644;2023-02-14T04:02:06;101129.72;;;8.96;55.60
40574;BME280;26283;49.020;8.644;2023-02-14T04:04:38;101129.72;;;8.96;55.70
40574;BME280;26283;49.020;8.644;2023-02-14T04:07:09;101136.94;;;8.95;55.71
40574;BME280;26283;49.020;8.644;2023-02-14T04:09:35;101130.72;;;8.94;55.72
40574;BME280;26283;49.020;8.644;2023-02-14T04:12:00;101129.88;;;8.94;55.59
40574;BME280;26283;49.020;8.644;2023-02-14T04:14:26;101139.81;;;8.93;55.63
40574;BME280;26283;49.020;8.644;2023-02-14T04:16:53;101133.59;;;8.93;55.64
40574;BME280;26283;49.020;8.644;2023-02-14T04:19:37;101136.44;;;8.91;55.67
40574;BME280;26283;49.020;8.644;2023-02-14T04:22:03;101134.75;;;8.90;55.60
40574;BME280;26283;49.020;8.644;2023-02-14T04:24:28;101133.91;;;8.90;55.63
40574;BME280;26283;49.020;8.644;2023-02-14T04:26:57;101136.75;;;8.88;55.64
40574;BME280;26283;49.020;8.644;2023-02-14T04:29:41;101127.84;;;8.88;55.66
40574;BME280;26283;49.020;8.644;2023-02-14T04:32:09;101121.66;;;8.87;55.62
40574;BME280;26283;49.020;8.644;2023-02-14T04:34:35;101125.34;;;8.86;55.64
40574;BME280;26283;49.020;8.644;2023-02-14T04:37:01;101121.97;;;8.84;55.62
40574;BME280;26283;49.020;8.644;2023-02-14T04:39:27;101125.66;;;8.83;55.67
40574;BME280;26283;49.020;8.644;2023-02-14T04:41:52;101126.66;;;8.82;55.66
40574;BME280;26283;49.020;8.644;2023-02-14T04:44:18;101120.28;;;8.83;55.63
40574;BME280;26283;49.020;8.644;2023-02-14T04:46:44;101120.28;;;8.83;55.60
40574;BME280;26283;49.020;8.644;2023-02-14T04:49:09;101124.97;;;8.81;55.65
40574;BME280;26283;49.020;8.644;2023-02-14T04:51:34;101117.91;;;8.80;55.62
40574;BME280;26283;49.020;8.644;2023-02-14T04:54:00;101118.75;;;8.81;55.64
40574;BME280;26283;49.020;8.644;2023-02-14T04:56:25;101117.91;;;8.80;55.66
40574;BME280;26283;49.020;8.644;2023-02-14T04:58:52;101114.53;;;8.78;55.65
40574;BME280;26283;49.020;8.644;2023-02-14T05:01:17;101111.84;;;8.78;55.70
40574;BME280;26283;49.020;8.644;2023-02-14T05:03:43;101111.19;;;8.76;55.64
40574;BME280;26283;49.020;8.644;2023-02-14T05:06:08;101112.03;;;8.77;55.63
40574;BME280;26283;49.020;8.644;2023-02-14T05:08:33;101110.34;;;8.76;55.68
40574;BME280;26283;49.020;8.644;2023-02-14T05:10:59;101112.19;;;8.75;55.66
40574;BME280;26283;49.020;8.644;2023-02-14T05:13:26;101107.81;;;8.74;55.67
40574;BME280;26283;49.020;8.644;2023-02-14T05:15:53;101118.56;;;8.74;55.69
40574;BME280;26283;49.020;8.644;2023-02-14T05:18:18;101115.19;;;8.72;55.68
40574;BME280;26283;49.020;8.644;2023-02-14T05:20:44;101113.50;;;8.71;55.69
40574;BME280;26283;49.020;8.644;2023-02-14T05:23:09;101116.19;;;8.71;55.77
40574;BME280;26283;49.020;8.644;2023-02-14T05:25:38;101121.72;;;8.70;55.67
40574;BME280;26283;49.020;8.644;2023-02-14T05:28:05;101117.34;;;8.69;55.68
40574;BME280;26283;49.020;8.644;2023-02-14T05:30:31;101117.50;;;8.67;55.71
40574;BME280;26283;49.020;8.644;2023-02-14T05:32:56;101121.87;;;8.68;55.67
40574;BME280;26283;49.020;8.644;2023-02-14T05:35:22;101125.75;;;8.66;55.71
40574;BME280;26283;49.020;8.644;2023-02-14T05:37:47;101123.88;;;8.66;55.72
40574;BME280;26283;49.020;8.644;2023-02-14T05:40:13;101118.69;;;8.65;55.74
40574;BME280;26283;49.020;8.644;2023-02-14T05:42:41;101122.38;;;8.64;55.69
40574;BME280;26283;49.020;8.644;2023-02-14T05:45:07;101126.09;;;8.63;55.75
40574;BME280;26283;49.020;8.644;2023-02-14T05:47:33;101119.84;;;8.62;55.78
40574;BME280;26283;49.020;8.644;2023-02-14T05:49:59;101120.88;;;8.61;55.75
40574;BME280;26283;49.020;8.644;2023-02-14T05:52:24;101126.25;;;8.61;55.74
40574;BME280;26283;49.020;8.644;2023-02-14T05:54:49;101128.94;;;8.61;55.66
40574;BME280;26283;49.020;8.644;2023-02-14T05:57:15;101127.25;;;8.60;55.70
40574;BME280;26283;49.020;8.644;2023-02-14T05:59:40;101123.88;;;8.58;55.74
40574;BME280;26283;49.020;8.644;2023-02-14T06:02:05;101129.25;;;8.58;55.72
40574;BME280;26283;49.020;8.644;2023-02-14T06:04:31;101129.41;;;8.56;55.70
40574;BME280;26283;49.020;8.644;2023-02-14T06:06:56;101131.25;;;8.56;55.76
40574;BME280;26283;49.020;8.644;2023-02-14T06:09:22;101132.94;;;8.57;55.74
40574;BME280;26283;49.020;8.644;2023-02-14T06:11:47;101130.41;;;8.55;55.84
40574;BME280;26283;49.020;8.644;2023-02-14T06:14:12;101128.87;;;8.53;55.77
40574;BME280;26283;49.020;8.644;2023-02-14T06:16:38;101129.88;;;8.52;55.86
40574;BME280;26283;49.020;8.644;2023-02-14T06:19:03;101130.72;;;8.52;55.90
40574;BME280;26283;49.020;8.644;2023-02-14T06:21:29;101128.19;;;8.51;55.90
40574;BME280;26283;49.020;8.644;2023-02-14T06:23:54;101140.62;;;8.52;55.91
40574;BME280;26283;49.020;8.644;2023-02-14T06:26:20;101140.94;;;8.49;55.87
40574;BME280;26283;49.020;8.644;2023-02-14T06:28:45;101142.78;;;8.48;55.89
40574;BME280;26283;49.020;8.644;2023-02-14T06:31:15;101146.31;;;8.49;55.92
40574;BME280;26283;49.020;8.644;2023-02-14T06:33:41;101143.78;;;8.47;56.08
40574;BME280;26283;49.020;8.644;2023-02-14T06:36:07;101145.63;;;8.47;56.00
40574;BME280;26283;49.020;8.644;2023-02-14T06:38:32;101144.78;;;8.46;56.01
40574;BME280;26283;49.020;8.644;2023-02-14T06:41:09;101148.47;;;8.45;55.99
40574;BME280;26283;49.020;8.644;2023-02-14T06:43:35;101144.12;;;8.44;56.13
40574;BME280;26283;49.020;8.644;2023-02-14T06:46:01;101147.81;;;8.43;56.03
40574;BME280;26283;49.020;8.644;2023-02-14T06:48:27;101150.66;;;8.42;56.06
40574;BME280;26283;49.020;8.644;2023-02-14T06:50:52;101156.03;;;8.42;56.12
40574;BME280;26283;49.020;8.644;2023-02-14T06:53:19;101154.34;;;8.41;56.07
40574;BME280;26283;49.020;8.644;2023-02-14T06:55:44;101156.19;;;8.40;56.04
40574;BME280;26283;49.020;8.644;2023-02-14T06:58:10;101159.88;;;8.39;56.10
40574;BME280;26283;49.020;8.644;2023-02-14T07:00:35;101162.72;;;8.38;56.04
40574;BME280;26283;49.020;8.644;2023-02-14T07:03:01;101157.34;;;8.38;56.04
40574;BME280;26283;49.020;8.644;2023-02-14T07:05:26;101158.34;;;8.37;56.09
40574;BME280;26283;49.020;8.644;2023-02-14T07:07:52;101158.34;;;8.37;56.18
40574;BME280;26283;49.020;8.644;2023-02-14T07:10:17;101156.66;;;8.36;56.22
40574;BME280;26283;49.020;8.644;2023-02-14T07:12:43;101152.28;;;8.35;56.18
40574;BME280;26283;49.020;8.644;2023-02-14T07:15:10;101151.44;;;8.34;56.25
40574;BME280;26283;49.020;8.644;2023-02-14T07:17:36;101153.28;;;8.34;56.23
40574;BME280;26283;49.020;8.644;2023-02-14T07:20:03;101157.81;;;8.33;56.28
40574;BME280;26283;49.020;8.644;2023-02-14T07:22:28;101155.25;;;8.32;56.27
40574;BME280;26283;49.020;8.644;2023-02-14T07:24:53;101153.56;;;8.31;56.31
40574;BME280;26283;49.020;8.644;2023-02-14T07:27:19;101152.56;;;8.32;56.29
40574;BME280;26283;49.020;8.644;2023-02-14T07:29:47;101157.94;;;8.32;56.32
40574;BME280;26283;49.020;8.644;2023-02-14T07:32:12;101157.25;;;8.30;56.33
40574;BME280;26283;49.020;8.644;2023-02-14T07:34:37;101151.03;;;8.29;56.35
40574;BME280;26283;49.020;8.644;2023-02-14T07:37:03;101154.72;;;8.28;56.40
40574;BME280;26283;49.020;8.644;2023-02-14T07:39:28;101148.50;;;8.27;56.45
40574;BME280;26283;49.020;8.644;2023-02-14T07:41:54;101144.97;;;8.27;56.48
40574;BME280;26283;49.020;8.644;2023-02-14T07:44:19;101147.81;;;8.25;56.50
40574;BME280;26283;49.020;8.644;2023-02-14T07:46:44;101141.44;;;8.26;56.53
40574;BME280;26283;49.020;8.644;2023-02-14T07:49:10;101145.13;;;8.25;56.58
40574;BME280;26283;49.020;8.644;2023-02-14T07:51:35;101142.59;;;8.24;56.66
40574;BME280;26283;49.020;8.644;2023-02-14T07:54:01;101146.28;;;8.23;56.71
40574;BME280;26283;49.020;8.644;2023-02-14T07:56:26;101142.59;;;8.24;56.76
40574;BME280;26283;49.020;8.644;2023-02-14T07:58:51;101140.09;;;8.22;56.76
40574;BME280;26283;49.020;8.644;2023-02-14T08:01:17;101149.16;;;8.21;56.69
40574;BME280;26283;49.020;8.644;2023-02-14T08:03:43;101151.00;;;8.21;56.74
40574;BME280;26283;49.020;8.644;2023-02-14T08:06:14;101149.16;;;8.21;56.75
40574;BME280;26283;49.020;8.644;2023-02-14T08:08:40;101147.31;;;8.22;56.83
40574;BME280;26283;49.020;8.644;2023-02-14T08:11:05;101140.25;;;8.21;56.87
40574;BME280;26283;49.020;8.644;2023-02-14T08:13:30;101133.34;;;8.18;56.84
40574;BME280;26283;49.020;8.644;2023-02-14T08:15:56;101139.56;;;8.19;56.76
40574;BME280;26283;49.020;8.644;2023-02-14T08:18:40;101138.72;;;8.18;56.80
40574;BME280;26283;49.020;8.644;2023-02-14T08:21:08;101142.41;;;8.17;56.88
40574;BME280;26283;49.020;8.644;2023-02-14T08:23:34;101145.09;;;8.17;56.77
40574;BME280;26283;49.020;8.644;2023-02-14T08:26:00;101146.09;;;8.16;56.76
40574;BME280;26283;49.020;8.644;2023-02-14T08:28:26;101143.41;;;8.16;56.84
40574;BME280;26283;49.020;8.644;2023-02-14T08:30:52;101141.72;;;8.15;56.87
40574;BME280;26283;49.020;8.644;2023-02-14T08:33:18;101145.25;;;8.16;56.81
40574;BME280;26283;49.020;8.644;2023-02-14T08:35:47;101148.94;;;8.15;56.83
40574;BME280;26283;49.020;8.644;2023-02-14T08:38:12;101144.41;;;8.15;56.81
40574;BME280;26283;49.020;8.644;2023-02-14T08:40:38;101148.09;;;8.14;56.88
40574;BME280;26283;49.020;8.644;2023-02-14T08:43:05;101141.87;;;8.14;56.87
40574;BME280;26283;49.020;8.644;2023-02-14T08:45:31;101140.19;;;8.13;56.87
40574;BME280;26283;49.020;8.644;2023-02-14T08:48:08;101139.34;;;8.12;56.83
40574;BME280;26283;49.020;8.644;2023-02-14T08:50:34;101144.72;;;8.12;57.06
40574;BME280;26283;49.020;8.644;2023-02-14T08:53:00;101144.72;;;8.12;56.92
40574;BME280;26283;49.020;8.644;2023-02-14T08:55:25;101143.88;;;8.12;56.93
40574;BME280;26283;49.020;8.644;2023-02-14T08:57:54;101146.41;;;8.13;56.98
40574;BME280;26283;49.020;8.644;2023-02-14T09:00:20;101136.66;;;8.12;57.05
40574;BME280;26283;49.020;8.644;2023-02-14T09:02:49;101144.72;;;8.12;57.10
40574;BME280;26283;49.020;8.644;2023-02-14T09:05:14;101139.34;;;8.12;57.11
40574;BME280;26283;49.020;8.644;2023-02-14T09:07:39;101142.19;;;8.11;57.14
40574;BME280;26283;49.020;8.644;2023-02-14T09:10:05;101148.25;;;8.13;57.29
40574;BME280;26283;49.020;8.644;2023-02-14T09:12:31;101147.53;;;8.11;57.32
40574;BME280;26283;49.020;8.644;2023-02-14T09:14:56;101151.91;;;8.12;57.36
40574;BME280;26283;49.020;8.644;2023-02-14T09:17:22;101155.44;;;8.12;57.46
40574;BME280;26283;49.020;8.644;2023-02-14T09:19:47;101151.91;;;8.12;57.46
40574;BME280;26283;49.020;8.644;2023-02-14T09:22:12;101160.97;;;8.11;57.66
40574;BME280;26283;49.020;8.644;2023-02-14T09:24:38;101167.19;;;8.11;58.09
40574;BME280;26283;49.020;8.644;2023-02-14T09:27:06;101170.72;;;8.12;58.68
40574;BME280;26283;49.020;8.644;2023-02-14T09:29:32;101163.03;;;8.17;58.47
40574;BME280;26283;49.020;8.644;2023-02-14T09:31:59;101159.22;;;8.19;58.27
40574;BME280;26283;49.020;8.644;2023-02-14T09:34:26;101156.53;;;8.19;58.17
40574;BME280;26283;49.020;8.644;2023-02-14T09:36:52;101156.53;;;8.19;58.11
40574;BME280;26283;49.020;8.644;2023-02-14T09:39:17;101156.53;;;8.19;58.11
40574;BME280;26283;49.020;8.644;2023-02-14T09:44:30;101159.22;;;8.19;58.15
40574;BME280;26283;49.020;8.644;2023-02-14T09:47:10;101149.47;;;8.18;58.17
40574;BME280;26283;49.020;8.644;2023-02-14T09:49:41;101151.16;;;8.19;58.17
40574;BME280;26283;49.020;8.644;2023-02-14T09:52:11;101143.25;;;8.18;58.19
40574;BME280;26283;49.020;8.644;2023-02-14T09:54:39;101150.31;;;8.19;58.22
40574;BME280;26283;49.020;8.644;2023-02-14T10:10:19;101130.66;;;8.18;58.33
40574;BME280;26283;49.020;8.644;2023-02-14T10:12:58;101131.34;;;8.20;58.35
40574;BME280;26283;49.020;8.644;2023-02-14T10:15:33;101126.97;;;8.19;58.36
40574;BME280;26283;49.020;8.644;2023-02-14T10:18:21;101130.34;;;8.21;58.36
40574;BME280;26283;49.020;8.644;2023-02-14T10:20:57;101128.66;;;8.20;58.38
40574;BME280;26283;49.020;8.644;2023-02-14T10:23:36;101124.97;;;8.21;58.37
40574;BME280;26283;49.020;8.644;2023-02-14T10:26:15;101124.97;;;8.21;58.38
40574;BME280;26283;49.020;8.644;2023-02-14T10:28:44;101123.97;;;8.22;58.38
40574;BME280;26283;49.020;8.644;2023-02-14T10:31:14;101122.09;;;8.23;58.38
40574;BME280;26283;49.020;8.644;2023-02-14T10:39:29;101115.56;;;8.25;58.39
40574;BME280;26283;49.020;8.644;2023-02-14T10:42:08;101107.53;;;8.25;58.39
40574;BME280;26283;49.020;8.644;2023-02-14T10:47:32;101108.37;;;8.26;58.39
40574;BME280;26283;49.020;8.644;2023-02-14T10:50:13;101111.72;;;8.28;58.37
40574;BME280;26283;49.020;8.644;2023-02-14T10:52:52;101108.22;;;8.27;58.37
40574;BME280;26283;49.020;8.644;2023-02-14T10:55:48;101112.56;;;8.29;58.36
40574;BME280;26283;49.020;8.644;2023-02-14T10:58:18;101107.87;;;8.31;58.38
40574;BME280;26283;49.020;8.644;2023-02-14T11:00:59;101105.22;;;8.31;58.33
40574;BME280;26283;49.020;8.644;2023-02-14T11:03:27;101108.63;;;8.33;58.37
40574;BME280;26283;49.020;8.644;2023-02-14T11:05:53;101103.25;;;8.33;58.35
40574;BME280;26283;49.020;8.644;2023-02-14T11:08:26;101097.87;;;8.33;58.34
40574;BME280;26283;49.020;8.644;2023-02-14T11:10:55;101094.19;;;8.34;58.33
40574;BME280;26283;49.020;8.644;2023-02-14T11:13:36;101090.34;;;8.36;58.32
40574;BME280;26283;49.020;8.644;2023-02-14T11:16:05;101081.44;;;8.36;58.30
40574;BME280;26283;49.020;8.644;2023-02-14T11:18:32;101084.13;;;8.36;58.28
40574;BME280;26283;49.020;8.644;2023-02-14T11:21:09;101080.28;;;8.38;58.27
40574;BME280;26283;49.020;8.644;2023-02-14T11:23:38;101078.44;;;8.39;58.26
40574;BME280;26283;49.020;8.644;2023-02-14T11:26:13;101077.28;;;8.41;58.23
40574;BME280;26283;49.020;8.644;2023-02-14T11:28:48;101079.97;;;8.41;58.21
40574;BME280;26283;49.020;8.644;2023-02-14T11:31:23;101070.06;;;8.42;58.20
40574;BME280;26283;49.020;8.644;2023-02-14T11:33:49;101061.00;;;8.43;58.18
40574;BME280;26283;49.020;8.644;2023-02-14T11:36:15;101061.66;;;8.45;58.16
40574;BME280;26283;49.020;8.644;2023-02-14T11:38:42;101063.31;;;8.46;58.15
40574;BME280;26283;49.020;8.644;2023-02-14T11:41:12;101059.63;;;8.47;58.13
40574;BME280;26283;49.020;8.644;2023-02-14T11:43:41;101059.47;;;8.48;58.10
40574;BME280;26283;49.020;8.644;2023-02-14T11:49:22;101045.88;;;8.50;58.05
40574;BME280;26283;49.020;8.644;2023-02-14T11:51:48;101040.50;;;8.50;58.03
40574;BME280;26283;49.020;8.644;2023-02-14T11:54:46;101044.88;;;8.51;58.00
40574;BME280;26283;49.020;8.644;2023-02-14T11:57:15;101040.19;;;8.53;58.01
40574;BME280;26283;49.020;8.644;2023-02-14T11:59:48;101033.81;;;8.54;57.95
40574;BME280;26283;49.020;8.644;2023-02-14T12:02:35;101039.88;;;8.56;57.95
40574;BME280;26283;49.020;8.644;2023-02-14T12:05:15;101033.50;;;8.57;57.95
40574;BME280;26283;49.020;8.644;2023-02-14T12:07:43;101027.13;;;8.58;57.90
40574;BME280;26283;49.020;8.644;2023-02-14T12:12:35;101023.44;;;8.59;57.89
40574;BME280;26283;49.020;8.644;2023-02-14T12:17:43;101016.03;;;8.61;57.87
40574;BME280;26283;49.020;8.644;2023-02-14T12:20:14;101014.03;;;8.63;57.84
40574;BME280;26283;49.020;8.644;2023-02-14T12:22:45;101015.72;;;8.64;57.82
40574;BME280;26283;49.020;8.644;2023-02-14T12:25:23;101003.97;;;8.65;57.80
40574;BME280;26283;49.020;8.644;2023-02-14T12:27:56;101008.31;;;8.66;57.77
40574;BME280;26283;49.020;8.644;2023-02-14T12:30:31;100999.25;;;8.67;57.74
40574;BME280;26283;49.020;8.644;2023-02-14T12:32:57;101005.31;;;8.69;57.72
40574;BME280;26283;49.020;8.644;2023-02-14T12:41:39;100993.22;;;8.73;57.65
40574;BME280;26283;49.020;8.644;2023-02-14T12:47:00;100994.75;;;8.76;57.59
40574;BME280;26283;49.020;8.644;2023-02-14T12:49:48;100987.53;;;8.76;57.58
40574;BME280;26283;49.020;8.644;2023-02-14T13:00:15;100976.13;;;8.82;57.52
40574;BME280;26283;49.020;8.644;2023-02-14T13:14:29;100961.81;;;8.90;57.43
40574;BME280;26283;49.020;8.644;2023-02-14T13:16:59;100955.44;;;8.91;57.39
40574;BME280;26283;49.020;8.644;2023-02-14T13:22:28;100954.25;;;8.93;57.35
40574;BME280;26283;49.020;8.644;2023-02-14T13:24:57;100955.78;;;8.96;57.33
40574;BME280;26283;49.020;8.644;2023-02-14T13:27:31;100955.63;;;8.98;57.34
40574;BME280;26283;49.020;8.644;2023-02-14T13:30:44;100944.88;;;8.98;57.33
40574;BME280;26283;49.020;8.644;2023-02-14T13:32:45;100945.53;;;9.00;57.30
40574;BME280;26283;49.020;8.644;2023-02-14T13:35:17;100945.22;;;9.03;57.27
40574;BME280;26283;49.020;8.644;2023-02-14T13:37:47;100935.28;;;9.03;57.25
40574;BME280;26283;49.020;8.644;2023-02-14T13:40:22;100927.06;;;9.05;57.24
40574;BME280;26283;49.020;8.644;2023-02-14T13:42:55;100919.66;;;9.07;57.21
40574;BME280;26283;49.020;8.644;2023-02-14T13:48:12;100921.81;;;9.11;57.16
40574;BME280;26283;49.020;8.644;2023-02-14T13:50:48;100916.28;;;9.13;57.13
40574;BME280;26283;49.020;8.644;2023-02-14T13:53:44;100917.12;;;9.13;57.10
40574;BME280;26283;49.020;8.644;2023-02-14T13:58:36;100917.63;;;9.17;57.07
40574;BME280;26283;49.020;8.644;2023-02-14T14:01:42;100919.97;;;9.20;57.06
40574;BME280;26283;49.020;8.644;2023-02-14T14:04:33;100913.59;;;9.21;57.03
40574;BME280;26283;49.020;8.644;2023-02-14T14:12:39;100914.94;;;9.25;56.98
40574;BME280;26283;49.020;8.644;2023-02-14T14:17:32;100908.22;;;9.29;56.95
40574;BME280;26283;49.020;8.644;2023-02-14T14:19:59;100913.44;;;9.31;56.95
40574;BME280;26283;49.020;8.644;2023-02-14T14:22:26;100909.53;;;9.33;56.94
40574;BME280;26283;49.020;8.644;2023-02-14T14:27:26;100910.19;;;9.35;56.92
40574;BME280;26283;49.020;8.644;2023-02-14T14:29:57;100905.50;;;9.37;56.88
40574;BME280;26283;49.020;8.644;2023-02-14T14:32:36;100903.47;;;9.39;56.87
40574;BME280;26283;49.020;8.644;2023-02-14T14:35:25;100900.63;;;9.41;56.87
40574;BME280;26283;49.020;8.644;2023-02-14T14:37:53;100895.06;;;9.42;56.83
40574;BME280;26283;49.020;8.644;2023-02-14T14:40:25;100897.75;;;9.42;56.82
40574;BME280;26283;49.020;8.644;2023-02-14T14:42:52;100888.50;;;9.45;56.80
40574;BME280;26283;49.020;8.644;2023-02-14T14:45:23;100890.34;;;9.44;56.80
40574;BME280;26283;49.020;8.644;2023-02-14T14:47:52;100897.25;;;9.47;56.79
40574;BME280;26283;49.020;8.644;2023-02-14T14:50:23;100893.56;;;9.48;56.77
40574;BME280;26283;49.020;8.644;2023-02-14T14:52:52;100891.53;;;9.50;56.75
40574;BME280;26283;49.020;8.644;2023-02-14T14:55:27;100885.97;;;9.51;56.72
40574;BME280;26283;49.020;8.644;2023-02-14T14:57:55;100884.13;;;9.52;56.70
40574;BME280;26283;49.020;8.644;2023-02-14T15:00:29;100879.38;;;9.54;56.67
40574;BME280;26283;49.020;8.644;2023-02-14T15:05:30;100873.66;;;9.57;56.66
40574;BME280;26283;49.020;8.644;2023-02-14T15:07:57;100873.66;;;9.57;56.64
40574;BME280;26283;49.020;8.644;2023-02-14T15:10:27;100869.94;;;9.58;56.65
40574;BME280;26283;49.020;8.644;2023-02-14T15:12:57;100869.78;;;9.59;56.66
40574;BME280;26283;49.020;8.644;2023-02-14T15:15:46;100860.03;;;9.58;56.66
40574;BME280;26283;49.020;8.644;2023-02-14T15:18:14;100860.69;;;9.60;56.61